createdAt,value
2018-06-08T00:00:01.649Z,13.60
2018-06-08T00:02:29.775Z,14.05
2018-06-08T00:04:58.503Z,13.10
2018-06-08T00:07:25.595Z,13.05
2018-06-08T00:09:52.221Z,14.15
2018-06-08T00:12:20.155Z,13.15
2018-06-08T00:14:47.446Z,12.00
2018-06-08T00:17:14.530Z,13.02
2018-06-08T00:19:41.435Z,12.95
2018-06-08T00:22:08.149Z,13.35
2018-06-08T00:24:36.789Z,13.07
2018-06-08T00:27:04.562Z,13.40
2018-06-08T00:29:32.367Z,13.23
2018-06-08T00:32:00.243Z,13.32
2018-06-08T00:34:26.942Z,13.75
2018-06-08T00:36:53.116Z,12.18
2018-06-08T00:39:20.046Z,11.90
2018-06-08T00:41:47.694Z,13.55
2018-06-08T00:44:16.881Z,13.77
2018-06-08T00:46:43.579Z,12.70
2018-06-08T00:49:10.435Z,12.57
2018-06-08T00:51:37.329Z,14.00
2018-06-08T00:54:04.438Z,14.07
2018-06-08T00:56:31.793Z,15.27
2018-06-08T00:58:59.558Z,13.50
2018-06-08T01:01:26.659Z,14.87
2018-06-08T01:03:53.536Z,13.05
2018-06-08T01:06:21.212Z,13.75
2018-06-08T01:08:47.921Z,13.90
2018-06-08T01:11:14.806Z,14.10
2018-06-08T01:13:41.478Z,15.43
2018-06-08T01:16:07.569Z,13.23
2018-06-08T01:18:34.214Z,14.70
2018-06-08T01:21:01.371Z,13.73
2018-06-08T01:23:28.588Z,13.52
2018-06-08T01:25:55.854Z,13.70
2018-06-08T01:28:23.273Z,13.68
2018-06-08T01:30:51.810Z,14.18
2018-06-08T01:33:18.617Z,13.27
2018-06-08T01:35:46.265Z,13.60
2018-06-08T01:38:13.951Z,14.07
2018-06-08T01:40:41.651Z,13.75
2018-06-08T01:43:09.059Z,13.20
2018-06-08T01:45:35.651Z,12.23
2018-06-08T01:48:02.386Z,13.35
2018-06-08T01:50:29.047Z,12.75
2018-06-08T01:52:57.377Z,11.40
2018-06-08T01:55:25.231Z,12.37
2018-06-08T01:57:51.646Z,12.88
2018-06-08T02:00:18.009Z,12.63
2018-06-08T02:02:45.151Z,12.35
2018-06-08T02:05:11.746Z,11.85
2018-06-08T02:07:38.353Z,10.95
2018-06-08T02:10:05.474Z,11.05
2018-06-08T02:12:33.026Z,10.60
2018-06-08T02:15:00.539Z,10.93
2018-06-08T02:17:26.910Z,11.95
2018-06-08T02:19:53.305Z,10.73
2018-06-08T02:22:19.766Z,11.18
2018-06-08T02:24:47.794Z,11.20
2018-06-08T02:27:15.002Z,13.77
2018-06-08T02:29:41.738Z,13.90
2018-06-08T02:32:09.279Z,13.10
2018-06-08T02:34:35.717Z,12.95
2018-06-08T02:37:03.275Z,13.35
2018-06-08T02:39:30.911Z,12.75
2018-06-08T02:41:58.134Z,13.07
2018-06-08T02:44:24.915Z,13.35
2018-06-08T02:46:53.872Z,13.88
2018-06-08T02:49:20.679Z,15.05
2018-06-08T02:51:47.369Z,16.52
2018-06-08T02:54:14.981Z,16.08
2018-06-08T02:56:41.277Z,16.83
2018-06-08T02:59:07.985Z,17.50
2018-06-08T03:01:34.583Z,15.48
2018-06-08T03:04:00.988Z,19.90
2018-06-08T03:06:28.154Z,17.95
2018-06-08T03:08:54.778Z,16.83
2018-06-08T03:11:21.066Z,17.02
2018-06-08T03:13:47.310Z,18.50
2018-06-08T03:16:13.447Z,19.62
2018-06-08T03:18:39.422Z,19.60
2018-06-08T03:21:05.558Z,19.73
2018-06-08T03:23:32.551Z,19.75
2018-06-08T03:25:59.311Z,19.25
2018-06-08T03:28:26.122Z,18.95
2018-06-08T03:30:52.443Z,19.75
2018-06-08T03:33:18.488Z,17.67
2018-06-08T03:35:44.677Z,16.80
2018-06-08T03:38:11.777Z,19.92
2018-06-08T03:40:39.706Z,19.12
2018-06-08T03:43:06.938Z,17.12
2018-06-08T03:45:33.482Z,17.77
2018-06-08T03:47:59.681Z,16.75
2018-06-08T03:50:25.976Z,17.40
2018-06-08T03:52:51.954Z,16.40
2018-06-08T03:55:17.979Z,14.27
2018-06-08T03:57:44.002Z,15.85
2018-06-08T04:00:09.970Z,15.73
2018-06-08T04:02:35.922Z,14.87
2018-06-08T04:05:01.903Z,15.00
2018-06-08T04:07:27.846Z,13.40
2018-06-08T04:09:53.789Z,14.00
2018-06-08T04:12:19.803Z,13.35
2018-06-08T04:14:47.413Z,13.70
2018-06-08T04:17:13.937Z,13.07
2018-06-08T04:19:41.143Z,13.10
2018-06-08T04:22:07.131Z,12.63
2018-06-08T04:24:33.879Z,12.37
2018-06-08T04:27:00.252Z,13.25
2018-06-08T04:29:26.264Z,12.13
2018-06-08T04:31:53.144Z,11.30
2018-06-08T04:34:19.155Z,11.27
2018-06-08T04:36:45.287Z,11.77
2018-06-08T04:39:11.365Z,11.85
2018-06-08T04:41:37.490Z,12.07
2018-06-08T04:44:03.561Z,11.95
2018-06-08T04:46:29.492Z,10.50
2018-06-08T04:48:55.446Z,10.53
2018-06-08T04:51:22.212Z,9.83
2018-06-08T04:53:48.225Z,9.50
2018-06-08T04:56:15.821Z,10.27
2018-06-08T04:58:42.891Z,9.77
2018-06-08T05:01:09.011Z,9.77
2018-06-08T05:03:36.344Z,10.75
2018-06-08T05:06:02.535Z,9.90
2018-06-08T05:08:28.635Z,10.10
2018-06-08T05:10:56.086Z,9.55
2018-06-08T05:13:22.100Z,10.02
2018-06-08T05:15:48.303Z,9.52
2018-06-08T05:18:14.895Z,9.40
2018-06-08T05:20:41.306Z,8.80
2018-06-08T05:23:07.696Z,8.85
2018-06-08T05:25:33.714Z,9.73
2018-06-08T05:27:59.839Z,9.00
2018-06-08T05:30:26.102Z,9.82
2018-06-08T05:32:52.341Z,9.55
2018-06-08T05:35:18.728Z,9.98
2018-06-08T05:37:46.509Z,11.02
2018-06-08T05:40:13.194Z,10.68
2018-06-08T05:42:39.827Z,10.60
2018-06-08T05:45:05.858Z,10.30
2018-06-08T05:47:32.090Z,11.27
2018-06-08T05:49:58.378Z,10.52
2018-06-08T05:52:24.462Z,10.27
2018-06-08T05:54:50.774Z,10.30
2018-06-08T05:57:17.002Z,10.13
2018-06-08T05:59:43.166Z,9.60
2018-06-08T06:02:09.625Z,10.73
2018-06-08T06:04:35.858Z,11.73
2018-06-08T06:07:02.060Z,11.12
2018-06-08T06:09:28.418Z,11.10
2018-06-08T06:11:56.222Z,11.93
2018-06-08T06:14:23.300Z,10.85
2018-06-08T06:16:51.547Z,12.15
2018-06-08T06:19:19.202Z,11.25
2018-06-08T06:21:46.301Z,9.80
2018-06-08T06:24:12.615Z,8.90
2018-06-08T06:26:39.583Z,9.23
2018-06-08T06:29:06.336Z,10.15
2018-06-08T07:20:49.667Z,12.45
2018-06-08T07:23:19.598Z,11.35
2018-06-08T07:25:49.686Z,11.12
2018-06-08T07:28:18.786Z,11.15
2018-06-08T07:30:48.512Z,12.77
2018-06-08T07:33:17.342Z,11.73
2018-06-08T07:35:43.681Z,13.43
2018-06-08T07:38:10.441Z,13.45
2018-06-08T07:40:38.398Z,13.10
2018-06-08T07:43:04.895Z,13.48
2018-06-08T07:45:30.996Z,14.02
2018-06-08T07:47:58.289Z,14.15
2018-06-08T07:50:24.533Z,12.98
2018-06-08T07:52:50.694Z,13.15
2018-06-08T07:55:16.730Z,13.68
2018-06-08T07:57:42.782Z,14.53
2018-06-08T08:00:09.669Z,14.25
2018-06-08T08:02:35.982Z,12.97
2018-06-08T08:05:02.066Z,13.43
2018-06-08T08:07:28.310Z,14.38
2018-06-08T08:09:55.097Z,13.20
2018-06-08T08:12:21.798Z,14.33
2018-06-08T08:14:47.755Z,14.47
2018-06-08T08:17:14.469Z,15.57
2018-06-08T08:19:40.391Z,16.23
2018-06-08T08:22:06.418Z,15.67
2018-06-08T08:24:32.445Z,16.23
2018-06-08T08:26:58.533Z,16.67
2018-06-08T08:29:24.563Z,16.40
2018-06-08T08:31:50.556Z,14.70
2018-06-08T08:40:20.695Z,15.27
2018-06-08T11:31:36.438Z,10.77
2018-06-08T11:34:24.263Z,12.10
2018-06-08T13:33:03.059Z,15.20
2018-06-08T13:35:39.229Z,14.60
2018-06-08T14:17:57.932Z,12.70
2018-06-08T14:24:09.909Z,12.10
2018-06-08T14:41:50.846Z,11.57
2018-06-08T14:44:21.339Z,12.17
2018-06-08T14:46:54.258Z,11.57
2018-06-08T14:49:24.317Z,12.13
2018-06-08T14:51:53.876Z,11.40
2018-06-08T14:57:17.558Z,11.60
2018-06-08T16:19:14.579Z,8.73
2018-06-08T16:24:44.145Z,8.63
2018-06-08T16:27:10.510Z,8.40
2018-06-08T16:29:37.806Z,9.17
2018-06-08T16:32:04.043Z,8.50
2018-06-08T16:34:29.961Z,9.10
2018-06-08T16:36:55.950Z,8.90
2018-06-08T16:39:21.894Z,8.13
2018-06-08T16:42:00.906Z,9.30
2018-06-08T16:44:26.861Z,8.17
2018-06-08T16:46:52.781Z,8.60
2018-06-08T16:49:18.698Z,8.40
2018-06-08T16:51:44.581Z,8.70
2018-06-08T16:54:10.497Z,8.27
2018-06-08T16:56:36.385Z,8.67
2018-06-08T16:59:02.315Z,8.70
2018-06-08T17:01:28.969Z,8.80
2018-06-08T17:03:54.938Z,7.07
2018-06-08T17:06:20.841Z,5.47
2018-06-08T17:08:46.755Z,5.60
2018-06-08T17:11:12.664Z,6.00
2018-06-08T17:13:38.605Z,6.00
2018-06-08T17:16:04.545Z,6.03
2018-06-08T17:18:30.431Z,6.23
2018-06-08T17:20:56.359Z,5.13
2018-06-08T17:23:22.276Z,6.27
2018-06-08T17:25:48.239Z,6.50
2018-06-08T17:28:14.155Z,7.03
2018-06-08T17:30:40.076Z,6.90
2018-06-08T17:33:28.102Z,7.87
2018-06-08T17:39:00.677Z,8.63
2018-06-08T17:41:32.442Z,9.63
2018-06-08T18:51:19.366Z,5.80
2018-06-08T18:53:54.071Z,7.00
2018-06-08T18:56:31.777Z,7.40
2018-06-08T19:08:39.303Z,8.18
